This is the latest recevied weather packets stored in our database for station/object OK3MS-5. If no packets are shown the sender has not sent any weather packets the latest 10 day(s).
| Time | Temp. | Humidity | Pressure | Rain* | Wind** | Luminosity | Snow |
|---|---|---|---|---|---|---|---|
| 1787392804 | 18.33° C | 63% | 1014.4 hPa | 0 mm | - | 668 W/m² | - |
| 1787392503 | 18.33° C | 68% | 1014.6 hPa | 0 mm | - | 672 W/m² | - |
| 1787392203 | 18.33° C | 68% | 1014.6 hPa | 0 mm | - | 150 W/m² | - |
| 1787391904 | 18.33° C | 66% | 1014.5 hPa | 0 mm | - | 134 W/m² | - |
| 1787391603 | 18.33° C | 66% | 1014.2 hPa | 0 mm | - | 359 W/m² | - |
| 1787391304 | 18.33° C | 66% | 1014.1 hPa | 0 mm | - | 172 W/m² | - |
| 1787391004 | 18.33° C | 66% | 1014.1 hPa | 0 mm | - | 768 W/m² | - |
| 1787390704 | 18.33° C | 66% | 1014.2 hPa | 0 mm | - | 198 W/m² | - |
| 1787390403 | 18.89° C | 64% | 1014 hPa | 0 mm | - | 140 W/m² | - |
| 1787390104 | 18.33° C | 66% | 1013.8 hPa | 0 mm | - | 636 W/m² | - |
| 1787389804 | 18.89° C | 66% | 1013.8 hPa | 0 mm | - | 640 W/m² | - |
| 1787389504 | 18.33° C | 67% | 1013.8 hPa | 0 mm | - | 710 W/m² | - |
| 1787389202 | 18.33° C | 69% | 1013.8 hPa | 0 mm | - | 626 W/m² | - |
| 1787388903 | 18.33° C | 72% | 1013.9 hPa | 0 mm | - | 236 W/m² | - |
| 1787388604 | 18.33° C | 70% | 1013.9 hPa | 0 mm | - | 650 W/m² | - |
| 1787388303 | 18.33° C | 72% | 1013.9 hPa | 0 mm | - | 640 W/m² | - |
| 1787388003 | 18.33° C | 72% | 1013.9 hPa | 0 mm | - | 184 W/m² | - |
| 1787387703 | 17.78° C | 73% | 1013.8 hPa | 0 mm | - | 552 W/m² | - |
| 1787387403 | 17.78° C | 74% | 1013.8 hPa | 0 mm | - | 217 W/m² | - |
| 1787387103 | 17.22° C | 74% | 1013.9 hPa | 0 mm | - | 358 W/m² | - |
| 1787386803 | 17.22° C | 76% | 1013.9 hPa | 0 mm | - | 227 W/m² | - |
| 1787386503 | 17.22° C | 80% | 1013.9 hPa | 0 mm | - | 436 W/m² | - |
| 1787386203 | 16.67° C | 81% | 1014 hPa | 0 mm | - | 303 W/m² | - |
| 1787385903 | 16.67° C | 83% | 1014 hPa | 0 mm | - | 145 W/m² | - |
| 1787385604 | 17.22° C | 80% | 1013.8 hPa | 0 mm | - | 127 W/m² | - |
* Rain latest hour (hover to see other rain measurements)
** Current wind speed in m/s (hover to see current wind gust speed)